• Join FlightAware (Why Join?)
  • Login
  • US Flag 
06:00PM EDT


 

Airport Tracker/Info


-or-


 

Live Flight TrackerFlight Track Log ✈ ASQ6118 ✈ 17-Nov-2013 ✈ KCLL - KIAH

Flight Track Log - Related Links

Times and Time Zones

All times are in EST time to prevent confusion due to time zone crossing. See the ASQ6118 flight status page for this flight to view local times or setup timezone preferences in your user account.

Time Position Orientation Groundspeed Altitude Reporting Facility
EST Latitude Longitude Course Direction KTS MPH feet Rate Location/Type
08:13PM 30.5322 -96.3458 167° South 182 209 3,000  Level Houston Center
08:14PM 30.5164 -96.2856 107° East 262 302 4,900 2,160 Climbing Houston Center
08:14PM 30.5133 -96.2728 106° East 273 314 5,200 1,800 Climbing Houston Center
08:15PM 30.4961 -96.1658 101° East 291 335 7,100 840 Climbing Houston Center
08:16PM 30.4856 -96.0856 99° East 295 339 7,000  Descending Houston Center
08:16PM 30.4844 -96.0797 102° East 296 341 7,100  Climbing Houston Center
08:17PM 30.4417 -96.0039 123° Southeast 298 343 7,000 -120 Descending Houston Center
08:17PM 30.4353 -95.9958 133° Southeast 297 342 7,000  Level Houston Center
08:18PM 30.3925 -95.9289 127° Southeast 292 336 7,000  Level Houston Center
08:19PM 30.3436 -95.8589 129° Southeast 294 338 7,000  Level Houston Center
08:19PM 30.3425 -95.8542 105° East 294 338 7,000  Level Houston Center
08:20PM 30.2903 -95.7756 128° Southeast 287 330 7,000  Level Houston Center
08:20PM 30.2942 -95.7819 305° West 286 329 7,000  Level Houston Center
08:21PM 30.2447 -95.7106 129° Southeast 294 338 7,000  Level Houston Center
08:21PM 30.2447 -95.7064 90° East 293 337 7,000  Level Houston Center
08:22PM 30.1947 -95.6336 128° Southeast 290 334 7,000  Level Houston Center
08:23PM 30.1403 -95.5514 127° Southeast 288 331 7,000  Level Houston Center
08:23PM 30.1358 -95.5442 125° Southeast 291 335 7,000  Level Houston Center
08:24PM 30.1058 -95.4603 112° Southeast 293 337 7,000  Level Houston Center
08:25PM 30.1064 -95.3678 90° East 290 334 7,000  Level Houston Center
08:26PM 30.1056 -95.2875 91° East 255 293 7,000  Level Houston Center
08:26PM 30.1056 -95.2867 90° East 259 298 7,000 -900 Level Houston Center
08:27PM 30.1067 -95.2078 89° East 243 280 6,100 -900 Descending Houston Center
08:27PM 30.1064 -95.2069 111° Southeast 250 288 6,100 -1,380 Level Houston Center
08:28PM 30.1039 -95.1308 92° East 242 278 4,700 -1,380 Descending Houston Center
08:28PM 30.1039 -95.1306 90° East 242 278 4,700 -780 Level Houston Center
08:29PM 30.0497 -95.1156 167° South 224 258 4,000 -780 Descending Houston Center
08:29PM 30.0458 -95.1161 187° South 235 270 3,900 -1,380 Descending Houston Center
08:30PM 30.0083 -95.1667 229° Southwest 214 246 2,600 -1,500 Descending Houston Center
08:30PM 30.0008 -95.1778 232° Southwest 213 245 2,400 -720 Descending Houston Center
08:31PM 29.9944 -95.2189 260° West 163 188 1,900 -720 Descending Houston Center
08:31PM 29.9936 -95.2294 265° West 179 206 1,700 -720 Descending Houston Center
08:32PM 29.9922 -95.2628 267° West 126 145 1,200 -720 Descending Houston Center
08:32PM 29.9936 -95.2708 281° West 145 167 1,000 -780 Descending Houston Center
08:33PM 29.9922 -95.3086 268° West 129 148 400 -600 Descending Houston Center
08:33PM 29.9931 -95.3108 293° West 134 154 400  Level Houston Center